Latest Weather Observations for Avalon

IDV60901

Issued at 7:15 am EDT Saturday 22 November 2014 (issued every 10 minutes, with the page automatically refreshed every 10 minutes)

About weather observations | Map of Melbourne area stations | Latest observations for Melbourne area | Other Formats
Station Details ID: 087113 Name: AVALON AIRPORT Lat: -38.03 Lon: 144.48 Height: 10.6 m
Data from the previous 72 hours. | See also: Recent months at Avalon
Date/Time
EDT
Tmp

°C
App
Tmp
°C
Dew
Point
°C
Rel
Hum
%
Delta-T

°C
Wind Press
QNH
hPa
Press
MSL
hPa
Rain
since
9 am
mm
Dir
 
Spd
km/h
Gust
km/h
Spd
kts
Gust
kts
22/07:00am 11.1 10.7 9.9 92 0.6 W 2 7 1 4 1010.4 1010.4 0.0
22/06:30am 10.5 9.0 9.1 91 0.7 SW 7 9 4 5 1010.5 1010.5 0.0
22/06:00am 11.4 10.1 10.0 91 0.7 N 7 11 4 6 1010.2 1010.2 0.0
22/05:30am 11.7 9.4 10.6 93 0.6 N 13 17 7 9 1009.7 1009.7 0.0
22/05:00am 10.7 8.9 9.6 93 0.6 N 9 13 5 7 1009.5 1009.5 0.0
22/04:30am 10.5 9.2 9.3 92 0.6 NNW 6 7 3 4 1009.7 1009.7 0.0
22/04:00am 10.7 9.3 9.6 93 0.6 NNE 7 9 4 5 1009.6 1009.6 0.0
22/03:30am 9.7 7.6 8.3 91 0.7 N 9 11 5 6 1010.0 1010.0 0.0
22/03:00am 10.0 8.0 8.6 91 0.7 N 9 13 5 7 1010.2 1010.2 0.0
22/02:30am 9.9 7.8 8.3 90 0.8 N 9 13 5 7 1010.3 1010.3 0.0
22/02:00am 10.4 8.4 8.8 90 0.8 N 9 11 5 6 1010.9 1010.9 0.0
22/01:30am 10.6 8.7 9.0 90 0.8 NNW 9 11 5 6 1011.5 1011.5 0.0
22/01:00am 10.4 8.7 8.5 88 0.9 WNW 7 9 4 5 1012.0 1012.0 0.0
22/12:30am 10.7 9.1 8.6 87 1.0 NW 7 7 4 4 1012.4 1012.4 0.0
22/12:00am 11.0 9.6 8.9 87 1.0 NW 6 7 3 4 1012.6 1012.6 0.0
 
Date/Time
EDT
Tmp

°C
App
Tmp
°C
Dew
Point
°C
Rel
Hum
%
Delta-T

°C
Wind Press
QNH
hPa
Press
MSL
hPa
Rain
since
9 am
mm
Dir
 
Spd
km/h
Gust
km/h
Spd
kts
Gust
kts
21/11:30pm 11.5 9.9 8.7 83 1.4 W 7 9 4 5 1013.0 1013.0 0.0
21/11:00pm 11.8 11.5 8.8 82 1.5 CALM 0 0 0 0 1013.0 1013.0 0.0
21/10:30pm 12.7 12.7 9.7 82 1.5 CALM 0 0 0 0 1013.0 1013.0 0.0
21/10:00pm 12.0 10.5 9.0 82 1.5 SSE 7 9 4 5 1012.7 1012.7 0.0
21/09:30pm 12.6 10.4 9.2 80 1.7 S 11 13 6 7 1012.7 1012.7 0.0
21/09:00pm 13.4 10.8 9.3 76 2.1 S 13 15 7 8 1012.6 1012.6 0.0
21/08:30pm 14.1 11.4 9.1 72 2.5 SSE 13 15 7 8 1012.5 1012.5 0.0
21/08:00pm 15.4 12.5 9.5 68 3.1 SSE 15 19 8 10 1012.3 1012.3 0.0
21/07:30pm 17.0 13.7 9.7 62 3.8 S 17 20 9 11 1011.7 1011.7 0.0
21/07:00pm 17.9 14.7 9.8 59 4.3 SSE 17 20 9 11 1011.3 1011.3 0.0
21/06:30pm 18.3 14.6 9.6 57 4.6 SSE 19 22 10 12 1011.1 1011.1 0.0
21/06:00pm 19.2 15.6 9.9 55 5.0 SSE 19 24 10 13 1010.9 1010.9 0.0
21/05:30pm 20.1 16.0 10.2 53 5.3 S 22 28 12 15 1010.7 1010.7 0.0
21/05:00pm 20.2 16.6 10.0 52 5.5 SSE 19 24 10 13 1010.7 1010.7 0.0
21/04:30pm 19.9 15.4 10.0 53 5.3 SSE 24 32 13 17 1010.7 1010.7 0.0
21/04:00pm 21.1 16.7 10.3 50 5.9 S 24 33 13 18 1010.8 1010.8 0.0
21/03:30pm 21.4 17.4 10.6 50 5.9 S 22 30 12 16 1010.9 1010.9 0.0
21/03:00pm 22.0 17.5 10.2 47 6.4 S 24 33 13 18 1010.9 1010.9 0.0
21/02:30pm 22.9 19.0 7.0 36 8.2 W 17 24 9 13 1010.8 1010.8 0.0
21/02:00pm 22.0 17.1 6.7 37 7.8 WSW 22 33 12 18 1011.2 1011.2 0.0
21/01:30pm 21.9 17.7 7.3 39 7.5 WSW 19 28 10 15 1011.3 1011.3 0.0
21/01:00pm 21.1 16.8 8.0 43 6.8 SW 20 28 11 15 1011.4 1011.4 0.0
21/12:30pm 21.4 16.9 8.7 44 6.7 WNW 22 35 12 19 1011.5 1011.5 0.0
21/12:00pm 19.1 15.0 8.7 51 5.4 W 20 28 11 15 1011.6 1011.6 0.0
21/11:30am 18.4 13.2 8.9 54 4.9 W 26 37 14 20 1011.7 1011.7 0.0
21/11:00am 19.0 14.8 9.8 55 4.9 W 22 33 12 18 1011.6 1011.6 0.0
21/10:30am 18.7 14.6 10.0 57 4.6 W 22 30 12 16 1011.5 1011.5 0.0
21/10:00am 16.6 12.0 9.5 63 3.7 W 24 35 13 19 1011.1 1011.1 0.0
21/09:30am 16.9 12.7 11.0 68 3.2 WNW 24 32 13 17 1010.8 1010.8 0.0
21/09:00am 16.2 10.1 10.5 69 3.0 W 33 43 18 23 1010.9 1010.9 0.6
21/08:30am 15.7 11.2 11.3 75 2.4 W 26 35 14 19 1010.5 1010.5 0.6
21/08:00am 15.4 10.6 11.8 79 1.9 W 28 39 15 21 1010.5 1010.5 0.6
21/07:30am 14.7 10.1 12.4 86 1.3 W 28 37 15 20 1009.9 1009.9 0.6
21/07:29am 14.7 10.1 12.4 86 1.3 W 28 37 15 20 1009.9 1009.9 0.6
21/07:14am 14.8 12.0 12.7 87 1.2 W 19 26 10 14 1009.4 1009.4 0.6
21/07:00am 14.6 11.6 12.5 87 1.1 W 20 28 11 15 1009.0 1009.0 0.6
21/06:40am 14.6 11.9 13.0 90 0.9 W 19 28 10 15 1008.4 1008.4 0.6
21/06:30am 14.6 12.3 13.0 90 0.9 W 17 24 9 13 1008.2 1008.2 0.6
21/06:00am 15.1 14.4 13.3 89 1.0 WNW 9 17 5 9 1008.0 1008.0 0.6
21/05:52am 15.1 15.0 13.3 89 1.0 W 6 11 3 6 1007.9 1007.9 0.6
21/05:41am 15.0 13.9 13.2 89 1.0 WNW 11 17 6 9 1007.8 1007.8 0.6
21/05:30am 15.0 13.5 13.0 88 1.1 WNW 13 19 7 10 1007.6 1007.6 0.6
21/05:07am 15.6 13.8 13.3 86 1.3 W 15 20 8 11 1007.3 1007.3 0.6
21/05:00am 15.7 13.5 13.2 85 1.4 W 17 22 9 12 1007.3 1007.3 0.6
21/04:30am 15.8 13.9 12.9 83 1.6 W 15 22 8 12 1006.7 1006.7 0.6
21/04:20am 16.0 13.7 13.1 83 1.6 W 17 24 9 13 1006.7 1006.7 0.6
21/04:00am 15.9 13.7 13.2 84 1.5 WSW 17 24 9 13 1006.6 1006.6 0.6
21/03:30am 16.0 14.3 13.5 85 1.4 WSW 15 20 8 11 1006.2 1006.2 0.6
21/03:15am 16.1 14.6 13.2 83 1.6 WSW 13 26 7 14 1006.0 1006.0 0.6
21/03:00am 16.2 14.3 13.1 82 1.7 WSW 15 19 8 10 1006.1 1006.1 0.6
21/02:30am 16.5 13.7 13.2 81 1.8 W 20 28 11 15 1006.1 1006.1 0.6
21/02:00am 17.1 13.3 13.6 80 2.0 WSW 26 35 14 19 1005.8 1005.8 0.6
21/01:38am 17.9 13.4 14.8 82 1.8 W 32 50 17 27 1005.5 1005.5 0.6
21/01:30am 18.6 12.8 14.9 79 2.2 W 39 50 21 27 1005.2 1005.2 0.6
21/01:29am 19.1 13.5 15.4 79 2.2 W 39 50 21 27 1005.2 1005.2 0.6
21/01:00am 19.7 18.0 16.2 80 2.1 NW 20 30 11 16 1004.8 1004.8 0.6
21/12:30am 19.1 17.9 16.0 82 1.8 NW 17 20 9 11 1004.9 1004.9 0.6
21/12:00am 19.2 18.3 15.9 81 2.0 NW 15 20 8 11 1004.9 1004.9 0.6
 
Date/Time
EDT
Tmp

°C
App
Tmp
°C
Dew
Point
°C
Rel
Hum
%
Delta-T

°C
Wind Press
QNH
hPa
Press
MSL
hPa
Rain
since
9 am
mm
Dir
 
Spd
km/h
Gust
km/h
Spd
kts
Gust
kts
20/11:30pm 19.2 17.6 16.1 82 1.8 NNW 19 24 10 13 1004.8 1004.8 0.6
20/11:00pm 19.5 17.4 16.2 81 2.0 NNW 22 28 12 15 1004.9 1004.9 0.6
20/10:30pm 19.4 17.8 15.9 80 2.1 NNW 19 22 10 12 1005.1 1005.1 0.6
20/10:00pm 19.2 18.4 16.1 82 1.9 NNW 15 19 8 10 1005.5 1005.5 0.6
20/09:30pm 19.4 18.4 15.5 78 2.3 N 15 17 8 9 1005.4 1005.4 0.6
20/09:00pm 20.2 19.3 15.8 76 2.6 N 15 20 8 11 1005.6 1005.6 0.6
20/08:30pm 20.6 20.2 16.2 76 2.6 NNE 13 19 7 10 1005.8 1005.8 0.6
20/08:00pm 20.7 19.8 15.9 74 2.9 N 15 20 8 11 1005.8 1005.8 0.6
20/07:30pm 20.6 18.8 16.0 75 2.8 N 20 28 11 15 1005.2 1005.2 0.6
20/07:00pm 20.2 18.6 16.4 79 2.3 N 20 28 11 15 1005.5 1005.5 0.6
20/06:30pm 20.8 21.9 18.0 84 1.7 NNW 9 9 5 5 1005.9 1005.9 0.2
20/06:00pm 21.2 22.0 17.4 79 2.3 NNW 9 13 5 7 1005.9 1005.9 0.0
20/05:30pm 21.1 19.8 16.9 77 2.6 WNW 19 24 10 13 1006.1 1006.1 0.0
20/05:00pm 21.6 19.2 16.3 72 3.2 W 24 30 13 16 1005.9 1005.9 0.0
20/04:30pm 22.7 18.2 15.0 61 4.6 WNW 32 39 17 21 1005.6 1005.6 0.0
20/04:00pm 23.2 19.4 15.8 63 4.5 WNW 30 37 16 20 1006.0 1006.0 0.0
20/03:42pm 23.2 17.9 15.3 61 4.7 WNW 37 56 20 30 1006.0 1006.0 0.0
20/03:30pm 24.3 17.5 14.4 54 5.9 WNW 43 54 23 29 1005.7 1005.7 0.0
20/03:00pm 25.7 16.8 13.2 46 7.3 WNW 52 70 28 38 1005.3 1005.3 0.0
20/02:49pm 26.7 19.4 12.7 42 8.1 WNW 43 70 23 38 1005.0 1005.0 0.0
20/02:30pm 27.4 20.6 13.0 41 8.4 W 41 52 22 28 1005.0 1005.0 0.0
20/02:00pm 27.6 20.2 12.4 39 8.9 WNW 43 61 23 33 1004.8 1004.8 0.0
20/01:44pm 28.0 22.1 12.4 38 9.1 WNW 35 56 19 30 1004.9 1004.9 0.0
20/01:30pm 27.2 19.9 12.8 41 8.4 W 43 57 23 31 1005.1 1005.1 0.0
20/01:00pm 30.2 20.0 6.8 23 12.6 WNW 50 72 27 39 1005.0 1005.0 0.0
20/12:47pm 30.8 22.2 4.5 19 13.6 NW 39 57 21 31 1004.6 1004.6 0.0
20/12:30pm 30.7 22.7 3.7 18 13.8 NW 35 46 19 25 1004.4 1004.4 0.0
20/12:00pm 29.4 21.8 4.1 20 13.0 NNW 33 44 18 24 1004.1 1004.1 0.0
20/11:34am 29.4 21.9 3.4 19 13.1 N 32 52 17 28 1004.0 1004.0 0.0
20/11:30am 29.2 22.2 3.9 20 12.9 N 30 46 16 25 1004.1 1004.1 0.0
20/11:00am 28.8 20.8 3.6 20 12.8 N 35 50 19 27 1004.3 1004.3 0.0
20/10:30am 28.7 19.4 2.8 19 12.9 N 41 54 22 29 1004.4 1004.4 0.0
20/10:00am 28.7 19.8 2.8 19 12.9 N 39 56 21 30 1004.6 1004.6 0.0
20/09:46am 27.8 18.4 2.1 19 12.5 N 41 59 22 32 1004.9 1004.9 0.0
20/09:30am 27.8 18.0 2.1 19 12.5 N 43 59 23 32 1005.0 1005.0 0.0
20/09:00am 27.9 17.5 2.2 19 12.6 N 46 65 25 35 1004.9 1004.9 0.0
20/08:49am 27.9 18.9 2.2 19 12.6 N 39 63 21 34 1005.1 1005.1 0.0
20/08:30am 27.5 18.5 2.6 20 12.2 N 39 54 21 29 1005.2 1005.2 0.0
20/08:00am 26.6 19.4 3.2 22 11.6 N 30 43 16 23 1005.4 1005.4 0.0
20/07:51am 26.4 19.7 3.6 23 11.3 N 28 43 15 23 1005.4 1005.4 0.0
20/07:30am 24.1 21.6 4.5 28 9.7 NE 7 11 4 6 1005.7 1005.7 0.0
20/07:00am 23.9 19.7 3.8 27 9.9 NNE 15 26 8 14 1006.0 1006.0 0.0
20/06:30am 20.0 15.9 6.0 40 7.0 NE 17 20 9 11 1006.1 1006.1 0.0
20/06:00am 19.2 15.5 6.3 43 6.4 NE 15 17 8 9 1006.2 1006.2 0.0
20/05:30am 20.0 16.5 5.6 39 7.1 NNE 13 17 7 9 1006.2 1006.2 0.0
20/05:00am 20.2 15.7 6.2 40 7.0 NNE 19 22 10 12 1006.1 1006.1 0.0
20/04:30am 20.4 16.8 6.7 41 6.9 NNE 15 19 8 10 1006.5 1006.5 0.0
20/04:00am 16.1 16.4 12.1 77 2.2 NNE 2 7 1 4 1006.7 1006.7 0.0
20/03:30am 14.8 14.4 12.3 85 1.4 ESE 6 7 3 4 1007.0 1007.0 0.0
20/03:00am 14.2 13.4 11.7 85 1.3 S 7 9 4 5 1007.4 1007.4 0.0
20/02:30am 15.0 15.1 11.4 79 1.9 E 2 6 1 3 1007.6 1007.6 0.0
20/02:00am 15.2 14.1 12.1 82 1.7 NE 9 13 5 7 1007.9 1007.9 0.0
20/01:30am 15.1 14.2 11.5 79 1.9 N 7 9 4 5 1008.4 1008.4 0.0
20/01:00am 15.3 14.2 12.1 81 1.7 NNW 9 11 5 6 1009.2 1009.2 0.0
20/12:30am 15.2 14.1 11.8 80 1.8 NW 9 11 5 6 1009.7 1009.7 0.0
20/12:00am 15.8 14.5 12.5 81 1.8 WNW 11 13 6 7 1010.2 1010.2 0.0
 
Date/Time
EDT
Tmp

°C
App
Tmp
°C
Dew
Point
°C
Rel
Hum
%
Delta-T

°C
Wind Press
QNH
hPa
Press
MSL
hPa
Rain
since
9 am
mm
Dir
 
Spd
km/h
Gust
km/h
Spd
kts
Gust
kts
19/11:30pm 15.1 13.4 12.6 85 1.4 W 13 17 7 9 1010.8 1010.8 0.0
19/11:00pm 15.5 14.2 12.6 83 1.6 W 11 13 6 7 1011.0 1011.0 0.0
19/10:30pm 15.6 13.9 12.5 82 1.7 W 13 15 7 8 1011.5 1011.5 0.0
19/10:00pm 16.1 15.2 12.5 79 2.0 W 9 11 5 6 1011.2 1011.2 0.0
19/09:30pm 17.1 15.6 13.0 77 2.3 SW 13 17 7 9 1011.2 1011.2 0.0
19/09:00pm 17.7 15.5 13.4 76 2.4 SW 17 20 9 11 1011.3 1011.3 0.0
19/08:30pm 18.1 15.3 13.2 73 2.8 SSW 20 24 11 13 1011.0 1011.0 0.0
19/08:00pm 22.0 20.7 12.5 54 5.4 ENE 11 13 6 7 1010.7 1010.7 0.0
19/07:30pm 23.3 20.8 11.0 46 6.8 E 15 17 8 9 1010.7 1010.7 0.0
19/07:00pm 25.2 21.7 8.7 35 8.9 E 17 20 9 11 1010.8 1010.8 0.0
19/06:30pm 26.2 22.1 7.7 31 9.9 E 19 24 10 13 1011.0 1011.0 0.0
19/06:00pm 26.5 22.3 7.5 30 10.1 E 19 24 10 13 1011.1 1011.1 0.0
19/05:30pm 26.6 22.4 7.6 30 10.1 E 19 22 10 12 1011.4 1011.4 0.0
19/05:00pm 26.3 22.4 8.8 33 9.5 ESE 19 22 10 12 1012.0 1012.0 0.0
19/04:30pm 25.9 21.3 8.0 32 9.6 E 22 26 12 14 1012.4 1012.4 0.0
19/04:00pm 25.1 20.4 7.7 33 9.2 ESE 22 26 12 14 1012.9 1012.9 0.0
19/03:30pm 24.4 20.2 8.4 36 8.5 ESE 20 24 11 13 1013.5 1013.5 0.0
19/03:00pm 24.7 19.7 8.2 35 8.8 ESE 24 28 13 15 1013.9 1013.9 0.0
19/02:30pm 24.7 19.7 9.4 38 8.3 ESE 26 30 14 16 1014.5 1014.5 0.0
19/02:00pm 23.7 19.0 9.3 40 7.8 ESE 24 30 13 16 1014.9 1014.9 0.0
19/01:30pm 22.8 17.7 9.2 42 7.3 ESE 26 33 14 18 1015.2 1015.2 0.0
19/01:00pm 21.5 17.2 12.1 55 5.3 ESE 26 30 14 16 1016.0 1016.0 0.0
19/12:30pm 21.8 18.1 12.6 56 5.2 ESE 24 32 13 17 1016.5 1016.5 0.0
19/12:00pm 21.6 18.1 12.2 55 5.3 E 22 32 12 17 1016.8 1016.8 0.0
19/11:30am 20.7 16.6 11.6 56 5.0 E 24 32 13 17 1017.3 1017.3 0.0
19/11:00am 20.5 17.5 10.6 53 5.4 ENE 17 28 9 15 1017.7 1017.7 0.0
19/10:30am 19.9 17.0 9.8 52 5.4 ENE 15 22 8 12 1018.4 1018.4 0.0
19/10:00am 18.6 15.7 9.7 56 4.7 NE 15 22 8 12 1018.6 1018.6 0.0
19/09:30am 17.7 14.5 10.1 61 4.0 NNE 17 24 9 13 1019.2 1019.2 0.0
19/09:00am 16.7 13.1 9.9 64 3.6 NE 19 22 10 12 1019.3 1019.3 0.0
19/08:30am 15.7 12.6 10.2 70 2.9 NNE 17 24 9 13 1019.5 1019.5 -
19/08:00am 15.0 11.9 10.2 73 2.5 NNE 17 20 9 11 1019.3 1019.3 -
19/07:30am 14.3 12.1 10.7 79 1.9 NNE 13 17 7 9 1019.4 1019.4 -

Latest Capital City Observations: Canberra | Sydney | Melbourne | Brisbane | Adelaide | Perth | Hobart | Darwin

Other Formats:

Comma delimited format used in spreadsheet applications
http://www.bom.gov.au/fwo/IDV60901/IDV60901.94854.axf

JavaScript Object Notation format (JSON) in row-major order
http://www.bom.gov.au/fwo/IDV60901/IDV60901.94854.json